sensor_id;sensor_type;location;lat;lon;timestamp;P1;durP1;ratioP1;P2;durP2;ratioP2
78489;SDS011;67776;52.012;4.736;2023-10-09T00:00:33;35.13;;;15.43;;
78489;SDS011;67776;52.012;4.736;2023-10-09T00:03:05;36.72;;;16.23;;
78489;SDS011;67776;52.012;4.736;2023-10-09T00:05:31;35.08;;;17.17;;
78489;SDS011;67776;52.012;4.736;2023-10-09T00:08:12;38.35;;;17.90;;
78489;SDS011;67776;52.012;4.736;2023-10-09T00:10:46;39.43;;;17.83;;
78489;SDS011;67776;52.012;4.736;2023-10-09T00:13:21;40.58;;;16.88;;
78489;SDS011;67776;52.012;4.736;2023-10-09T00:15:55;35.92;;;17.30;;
78489;SDS011;67776;52.012;4.736;2023-10-09T00:18:26;36.28;;;16.70;;
78489;SDS011;67776;52.012;4.736;2023-10-09T00:20:55;37.78;;;17.50;;
78489;SDS011;67776;52.012;4.736;2023-10-09T00:23:25;36.43;;;17.17;;
78489;SDS011;67776;52.012;4.736;2023-10-09T00:25:52;35.53;;;17.30;;
78489;SDS011;67776;52.012;4.736;2023-10-09T00:28:37;32.63;;;16.55;;
78489;SDS011;67776;52.012;4.736;2023-10-09T00:31:08;38.15;;;16.00;;
78489;SDS011;67776;52.012;4.736;2023-10-09T00:33:39;31.58;;;15.55;;
78489;SDS011;67776;52.012;4.736;2023-10-09T00:36:05;32.60;;;15.60;;
78489;SDS011;67776;52.012;4.736;2023-10-09T00:38:43;27.08;;;14.68;;
78489;SDS011;67776;52.012;4.736;2023-10-09T00:41:14;31.35;;;14.35;;
78489;SDS011;67776;52.012;4.736;2023-10-09T00:43:45;28.27;;;14.10;;
78489;SDS011;67776;52.012;4.736;2023-10-09T00:46:24;28.90;;;13.20;;
78489;SDS011;67776;52.012;4.736;2023-10-09T00:48:54;27.58;;;13.23;;
78489;SDS011;67776;52.012;4.736;2023-10-09T00:51:21;28.58;;;13.15;;
78489;SDS011;67776;52.012;4.736;2023-10-09T00:53:49;23.40;;;12.18;;
78489;SDS011;67776;52.012;4.736;2023-10-09T00:56:18;24.77;;;12.40;;
78489;SDS011;67776;52.012;4.736;2023-10-09T00:58:46;19.67;;;10.10;;
78489;SDS011;67776;52.012;4.736;2023-10-09T01:01:14;26.77;;;11.15;;
78489;SDS011;67776;52.012;4.736;2023-10-09T01:03:42;20.25;;;9.82;;
78489;SDS011;67776;52.012;4.736;2023-10-09T01:06:09;21.02;;;9.25;;
78489;SDS011;67776;52.012;4.736;2023-10-09T01:08:37;17.73;;;7.63;;
78489;SDS011;67776;52.012;4.736;2023-10-09T01:11:07;17.43;;;7.07;;
78489;SDS011;67776;52.012;4.736;2023-10-09T01:13:43;16.77;;;6.90;;
78489;SDS011;67776;52.012;4.736;2023-10-09T01:16:13;15.35;;;6.95;;
78489;SDS011;67776;52.012;4.736;2023-10-09T01:18:45;15.02;;;7.18;;
78489;SDS011;67776;52.012;4.736;2023-10-09T01:21:14;14.57;;;6.80;;
78489;SDS011;67776;52.012;4.736;2023-10-09T01:23:41;19.97;;;7.73;;
78489;SDS011;67776;52.012;4.736;2023-10-09T01:26:31;12.90;;;6.78;;
78489;SDS011;67776;52.012;4.736;2023-10-09T01:29:18;16.30;;;7.15;;
78489;SDS011;67776;52.012;4.736;2023-10-09T01:31:46;14.65;;;7.22;;
78489;SDS011;67776;52.012;4.736;2023-10-09T01:34:28;15.70;;;7.25;;
78489;SDS011;67776;52.012;4.736;2023-10-09T01:37:15;13.00;;;6.67;;
78489;SDS011;67776;52.012;4.736;2023-10-09T01:39:47;16.15;;;6.57;;
78489;SDS011;67776;52.012;4.736;2023-10-09T01:42:14;13.43;;;6.82;;
78489;SDS011;67776;52.012;4.736;2023-10-09T01:44:55;15.68;;;7.43;;
78489;SDS011;67776;52.012;4.736;2023-10-09T01:47:23;15.85;;;7.18;;
78489;SDS011;67776;52.012;4.736;2023-10-09T01:49:50;15.03;;;7.67;;
78489;SDS011;67776;52.012;4.736;2023-10-09T01:52:21;20.15;;;8.13;;
78489;SDS011;67776;52.012;4.736;2023-10-09T01:54:51;16.52;;;7.22;;
78489;SDS011;67776;52.012;4.736;2023-10-09T01:57:17;17.88;;;8.25;;
78489;SDS011;67776;52.012;4.736;2023-10-09T01:59:55;17.17;;;8.20;;
78489;SDS011;67776;52.012;4.736;2023-10-09T02:02:24;20.47;;;8.67;;
78489;SDS011;67776;52.012;4.736;2023-10-09T02:04:59;18.45;;;8.30;;
78489;SDS011;67776;52.012;4.736;2023-10-09T02:07:40;16.02;;;7.90;;
78489;SDS011;67776;52.012;4.736;2023-10-09T02:10:09;16.02;;;7.60;;
78489;SDS011;67776;52.012;4.736;2023-10-09T02:13:00;15.73;;;7.90;;
78489;SDS011;67776;52.012;4.736;2023-10-09T02:15:40;15.02;;;7.75;;
78489;SDS011;67776;52.012;4.736;2023-10-09T02:18:08;17.63;;;7.75;;
78489;SDS011;67776;52.012;4.736;2023-10-09T02:20:51;15.55;;;7.40;;
78489;SDS011;67776;52.012;4.736;2023-10-09T02:23:29;15.60;;;8.15;;
78489;SDS011;67776;52.012;4.736;2023-10-09T02:26:04;17.43;;;7.93;;
78489;SDS011;67776;52.012;4.736;2023-10-09T02:28:34;16.70;;;8.15;;
78489;SDS011;67776;52.012;4.736;2023-10-09T02:31:00;16.05;;;8.27;;
78489;SDS011;67776;52.012;4.736;2023-10-09T02:33:35;18.77;;;8.75;;
78489;SDS011;67776;52.012;4.736;2023-10-09T02:36:05;18.65;;;8.52;;
78489;SDS011;67776;52.012;4.736;2023-10-09T02:38:31;14.50;;;7.47;;
78489;SDS011;67776;52.012;4.736;2023-10-09T02:41:00;16.50;;;7.75;;
78489;SDS011;67776;52.012;4.736;2023-10-09T02:43:45;16.25;;;8.32;;
78489;SDS011;67776;52.012;4.736;2023-10-09T02:46:20;15.82;;;7.35;;
78489;SDS011;67776;52.012;4.736;2023-10-09T02:48:54;16.75;;;8.23;;
78489;SDS011;67776;52.012;4.736;2023-10-09T02:51:24;17.30;;;7.67;;
78489;SDS011;67776;52.012;4.736;2023-10-09T02:53:53;20.27;;;8.18;;
78489;SDS011;67776;52.012;4.736;2023-10-09T02:56:19;18.10;;;7.82;;
78489;SDS011;67776;52.012;4.736;2023-10-09T02:58:50;18.95;;;8.40;;
78489;SDS011;67776;52.012;4.736;2023-10-09T03:01:19;17.20;;;7.43;;
78489;SDS011;67776;52.012;4.736;2023-10-09T03:03:44;17.80;;;7.90;;
78489;SDS011;67776;52.012;4.736;2023-10-09T03:06:14;16.60;;;7.43;;
78489;SDS011;67776;52.012;4.736;2023-10-09T03:08:54;13.63;;;6.87;;
78489;SDS011;67776;52.012;4.736;2023-10-09T03:11:20;15.88;;;7.60;;
78489;SDS011;67776;52.012;4.736;2023-10-09T03:13:45;17.23;;;7.40;;
78489;SDS011;67776;52.012;4.736;2023-10-09T03:16:12;17.50;;;7.32;;
78489;SDS011;67776;52.012;4.736;2023-10-09T03:18:49;15.17;;;7.40;;
78489;SDS011;67776;52.012;4.736;2023-10-09T03:21:16;17.98;;;7.30;;
78489;SDS011;67776;52.012;4.736;2023-10-09T03:23:42;16.38;;;7.63;;
78489;SDS011;67776;52.012;4.736;2023-10-09T03:26:14;18.08;;;7.70;;
78489;SDS011;67776;52.012;4.736;2023-10-09T03:28:44;14.52;;;7.70;;
78489;SDS011;67776;52.012;4.736;2023-10-09T03:31:11;14.30;;;7.40;;
78489;SDS011;67776;52.012;4.736;2023-10-09T03:33:37;13.82;;;6.90;;
78489;SDS011;67776;52.012;4.736;2023-10-09T03:36:03;15.80;;;7.15;;
78489;SDS011;67776;52.012;4.736;2023-10-09T03:38:32;16.93;;;7.50;;
78489;SDS011;67776;52.012;4.736;2023-10-09T03:41:03;17.88;;;6.95;;
78489;SDS011;67776;52.012;4.736;2023-10-09T03:43:35;14.32;;;7.35;;
78489;SDS011;67776;52.012;4.736;2023-10-09T03:46:09;18.10;;;7.20;;
78489;SDS011;67776;52.012;4.736;2023-10-09T03:48:51;13.60;;;6.03;;
78489;SDS011;67776;52.012;4.736;2023-10-09T03:51:22;14.80;;;6.37;;
78489;SDS011;67776;52.012;4.736;2023-10-09T03:53:48;16.63;;;6.82;;
78489;SDS011;67776;52.012;4.736;2023-10-09T03:56:14;13.60;;;6.15;;
78489;SDS011;67776;52.012;4.736;2023-10-09T03:58:44;17.20;;;6.80;;
78489;SDS011;67776;52.012;4.736;2023-10-09T04:01:14;14.50;;;6.82;;
78489;SDS011;67776;52.012;4.736;2023-10-09T04:03:54;13.57;;;6.33;;
78489;SDS011;67776;52.012;4.736;2023-10-09T04:06:26;14.50;;;6.63;;
78489;SDS011;67776;52.012;4.736;2023-10-09T04:08:55;13.85;;;6.40;;
78489;SDS011;67776;52.012;4.736;2023-10-09T04:11:23;14.63;;;6.55;;
78489;SDS011;67776;52.012;4.736;2023-10-09T04:13:49;14.48;;;6.43;;
78489;SDS011;67776;52.012;4.736;2023-10-09T04:16:17;15.00;;;7.07;;
78489;SDS011;67776;52.012;4.736;2023-10-09T04:19:05;14.25;;;6.43;;
78489;SDS011;67776;52.012;4.736;2023-10-09T04:21:39;16.45;;;6.35;;
78489;SDS011;67776;52.012;4.736;2023-10-09T04:24:07;15.43;;;6.53;;
78489;SDS011;67776;52.012;4.736;2023-10-09T04:26:39;15.63;;;6.90;;
78489;SDS011;67776;52.012;4.736;2023-10-09T04:29:09;13.00;;;5.53;;
78489;SDS011;67776;52.012;4.736;2023-10-09T04:31:54;14.98;;;5.70;;
78489;SDS011;67776;52.012;4.736;2023-10-09T04:34:25;15.13;;;6.50;;
78489;SDS011;67776;52.012;4.736;2023-10-09T04:37:00;14.68;;;6.85;;
78489;SDS011;67776;52.012;4.736;2023-10-09T04:39:29;14.23;;;6.85;;
78489;SDS011;67776;52.012;4.736;2023-10-09T04:41:59;16.07;;;6.50;;
78489;SDS011;67776;52.012;4.736;2023-10-09T04:44:43;17.45;;;6.63;;
78489;SDS011;67776;52.012;4.736;2023-10-09T04:47:32;11.93;;;5.93;;
78489;SDS011;67776;52.012;4.736;2023-10-09T04:50:05;12.98;;;6.28;;
78489;SDS011;67776;52.012;4.736;2023-10-09T04:52:36;15.48;;;6.30;;
78489;SDS011;67776;52.012;4.736;2023-10-09T04:55:02;14.53;;;6.23;;
78489;SDS011;67776;52.012;4.736;2023-10-09T04:57:37;19.02;;;6.40;;
78489;SDS011;67776;52.012;4.736;2023-10-09T05:00:17;15.68;;;6.22;;
78489;SDS011;67776;52.012;4.736;2023-10-09T05:02:58;13.60;;;6.05;;
78489;SDS011;67776;52.012;4.736;2023-10-09T05:05:51;15.00;;;6.45;;
78489;SDS011;67776;52.012;4.736;2023-10-09T05:08:24;12.03;;;5.83;;
78489;SDS011;67776;52.012;4.736;2023-10-09T05:11:00;15.10;;;5.85;;
78489;SDS011;67776;52.012;4.736;2023-10-09T05:13:30;13.88;;;6.30;;
78489;SDS011;67776;52.012;4.736;2023-10-09T05:18:58;17.58;;;5.68;;
78489;SDS011;67776;52.012;4.736;2023-10-09T05:21:25;13.13;;;6.43;;
78489;SDS011;67776;52.012;4.736;2023-10-09T05:24:02;13.30;;;6.22;;
78489;SDS011;67776;52.012;4.736;2023-10-09T05:26:37;14.63;;;6.50;;
78489;SDS011;67776;52.012;4.736;2023-10-09T05:29:12;16.73;;;6.53;;
78489;SDS011;67776;52.012;4.736;2023-10-09T05:31:48;16.83;;;6.63;;
78489;SDS011;67776;52.012;4.736;2023-10-09T05:34:34;13.13;;;5.80;;
78489;SDS011;67776;52.012;4.736;2023-10-09T05:37:20;13.10;;;5.90;;
78489;SDS011;67776;52.012;4.736;2023-10-09T05:39:58;17.48;;;6.43;;
78489;SDS011;67776;52.012;4.736;2023-10-09T05:42:33;15.32;;;6.28;;
78489;SDS011;67776;52.012;4.736;2023-10-09T05:45:02;15.73;;;6.60;;
78489;SDS011;67776;52.012;4.736;2023-10-09T05:47:43;15.43;;;6.40;;
78489;SDS011;67776;52.012;4.736;2023-10-09T05:50:19;13.82;;;6.43;;
78489;SDS011;67776;52.012;4.736;2023-10-09T05:52:59;15.02;;;6.05;;
78489;SDS011;67776;52.012;4.736;2023-10-09T05:55:25;18.85;;;6.47;;
78489;SDS011;67776;52.012;4.736;2023-10-09T05:58:10;13.77;;;5.90;;
78489;SDS011;67776;52.012;4.736;2023-10-09T06:00:53;14.57;;;6.20;;
78489;SDS011;67776;52.012;4.736;2023-10-09T06:03:37;18.23;;;6.30;;
78489;SDS011;67776;52.012;4.736;2023-10-09T06:06:29;13.57;;;6.50;;
78489;SDS011;67776;52.012;4.736;2023-10-09T06:09:04;18.73;;;5.97;;
78489;SDS011;67776;52.012;4.736;2023-10-09T06:11:39;13.43;;;5.93;;
78489;SDS011;67776;52.012;4.736;2023-10-09T06:14:17;12.18;;;6.13;;
78489;SDS011;67776;52.012;4.736;2023-10-09T06:16:55;13.40;;;6.28;;
78489;SDS011;67776;52.012;4.736;2023-10-09T06:19:22;12.27;;;6.25;;
78489;SDS011;67776;52.012;4.736;2023-10-09T06:21:58;13.68;;;5.90;;
78489;SDS011;67776;52.012;4.736;2023-10-09T06:24:37;15.53;;;6.60;;
78489;SDS011;67776;52.012;4.736;2023-10-09T06:27:18;13.48;;;6.05;;
78489;SDS011;67776;52.012;4.736;2023-10-09T06:29:50;14.57;;;6.30;;
78489;SDS011;67776;52.012;4.736;2023-10-09T06:32:19;14.53;;;6.07;;
78489;SDS011;67776;52.012;4.736;2023-10-09T06:37:11;13.43;;;5.72;;
78489;SDS011;67776;52.012;4.736;2023-10-09T06:39:55;14.00;;;6.00;;
78489;SDS011;67776;52.012;4.736;2023-10-09T06:42:24;13.65;;;5.85;;
78489;SDS011;67776;52.012;4.736;2023-10-09T06:45:10;17.23;;;5.80;;
78489;SDS011;67776;52.012;4.736;2023-10-09T06:47:38;15.05;;;6.38;;
78489;SDS011;67776;52.012;4.736;2023-10-09T06:50:10;12.18;;;5.75;;
78489;SDS011;67776;52.012;4.736;2023-10-09T06:52:47;12.85;;;5.63;;
78489;SDS011;67776;52.012;4.736;2023-10-09T06:55:23;16.15;;;5.72;;
78489;SDS011;67776;52.012;4.736;2023-10-09T06:58:01;15.23;;;6.60;;
78489;SDS011;67776;52.012;4.736;2023-10-09T07:00:38;11.07;;;5.40;;
78489;SDS011;67776;52.012;4.736;2023-10-09T07:03:19;12.93;;;6.07;;
78489;SDS011;67776;52.012;4.736;2023-10-09T07:05:44;18.23;;;5.70;;
78489;SDS011;67776;52.012;4.736;2023-10-09T07:08:29;12.57;;;5.85;;
78489;SDS011;67776;52.012;4.736;2023-10-09T07:11:01;13.63;;;5.88;;
78489;SDS011;67776;52.012;4.736;2023-10-09T07:13:47;13.50;;;5.20;;
78489;SDS011;67776;52.012;4.736;2023-10-09T07:16:22;15.30;;;5.57;;
78489;SDS011;67776;52.012;4.736;2023-10-09T07:19:03;12.83;;;5.70;;
78489;SDS011;67776;52.012;4.736;2023-10-09T07:21:50;12.88;;;5.43;;
78489;SDS011;67776;52.012;4.736;2023-10-09T07:24:19;14.25;;;5.70;;
78489;SDS011;67776;52.012;4.736;2023-10-09T07:26:49;13.30;;;6.03;;
78489;SDS011;67776;52.012;4.736;2023-10-09T07:29:18;13.40;;;5.45;;
78489;SDS011;67776;52.012;4.736;2023-10-09T07:31:49;13.63;;;6.00;;
78489;SDS011;67776;52.012;4.736;2023-10-09T07:34:22;13.90;;;5.68;;
78489;SDS011;67776;52.012;4.736;2023-10-09T07:37:17;13.55;;;5.93;;
78489;SDS011;67776;52.012;4.736;2023-10-09T07:39:48;14.27;;;5.90;;
78489;SDS011;67776;52.012;4.736;2023-10-09T07:42:22;10.90;;;5.30;;
78489;SDS011;67776;52.012;4.736;2023-10-09T07:45:06;14.47;;;5.87;;
78489;SDS011;67776;52.012;4.736;2023-10-09T07:47:47;13.43;;;5.68;;
78489;SDS011;67776;52.012;4.736;2023-10-09T07:50:25;12.25;;;6.00;;
78489;SDS011;67776;52.012;4.736;2023-10-09T07:53:03;11.10;;;5.25;;
78489;SDS011;67776;52.012;4.736;2023-10-09T07:55:51;15.70;;;6.22;;
78489;SDS011;67776;52.012;4.736;2023-10-09T07:58:29;14.13;;;6.60;;
78489;SDS011;67776;52.012;4.736;2023-10-09T08:00:56;12.13;;;6.28;;
78489;SDS011;67776;52.012;4.736;2023-10-09T08:03:31;15.10;;;6.20;;
78489;SDS011;67776;52.012;4.736;2023-10-09T08:05:58;14.63;;;6.47;;
78489;SDS011;67776;52.012;4.736;2023-10-09T08:08:43;13.38;;;6.07;;
78489;SDS011;67776;52.012;4.736;2023-10-09T08:11:29;12.83;;;5.73;;
78489;SDS011;67776;52.012;4.736;2023-10-09T08:14:11;14.57;;;5.78;;
78489;SDS011;67776;52.012;4.736;2023-10-09T08:17:10;11.27;;;5.28;;
78489;SDS011;67776;52.012;4.736;2023-10-09T08:19:48;20.88;;;5.78;;
78489;SDS011;67776;52.012;4.736;2023-10-09T08:22:36;15.23;;;5.88;;
78489;SDS011;67776;52.012;4.736;2023-10-09T08:25:08;12.83;;;5.10;;
78489;SDS011;67776;52.012;4.736;2023-10-09T08:27:54;13.23;;;5.80;;
78489;SDS011;67776;52.012;4.736;2023-10-09T08:30:22;15.13;;;5.88;;
78489;SDS011;67776;52.012;4.736;2023-10-09T08:32:54;13.48;;;5.68;;
78489;SDS011;67776;52.012;4.736;2023-10-09T08:35:26;12.07;;;5.32;;
78489;SDS011;67776;52.012;4.736;2023-10-09T08:37:58;11.93;;;5.23;;
78489;SDS011;67776;52.012;4.736;2023-10-09T08:40:33;11.98;;;5.32;;
78489;SDS011;67776;52.012;4.736;2023-10-09T08:45:33;13.63;;;6.30;;
78489;SDS011;67776;52.012;4.736;2023-10-09T08:48:05;14.57;;;5.45;;
78489;SDS011;67776;52.012;4.736;2023-10-09T08:50:32;13.17;;;5.33;;
78489;SDS011;67776;52.012;4.736;2023-10-09T08:53:01;14.02;;;5.55;;
78489;SDS011;67776;52.012;4.736;2023-10-09T08:55:28;14.52;;;5.35;;
78489;SDS011;67776;52.012;4.736;2023-10-09T08:57:54;12.07;;;5.72;;
78489;SDS011;67776;52.012;4.736;2023-10-09T09:00:22;10.47;;;5.20;;
78489;SDS011;67776;52.012;4.736;2023-10-09T09:02:58;13.45;;;5.95;;
78489;SDS011;67776;52.012;4.736;2023-10-09T09:05:25;13.80;;;6.20;;
78489;SDS011;67776;52.012;4.736;2023-10-09T09:07:53;12.55;;;5.72;;
78489;SDS011;67776;52.012;4.736;2023-10-09T09:10:30;16.08;;;6.13;;
78489;SDS011;67776;52.012;4.736;2023-10-09T09:13:04;13.30;;;5.90;;
78489;SDS011;67776;52.012;4.736;2023-10-09T09:15:30;12.68;;;6.13;;
78489;SDS011;67776;52.012;4.736;2023-10-09T09:18:06;12.77;;;5.47;;
78489;SDS011;67776;52.012;4.736;2023-10-09T09:20:34;12.70;;;5.13;;
78489;SDS011;67776;52.012;4.736;2023-10-09T09:23:01;16.10;;;5.53;;
78489;SDS011;67776;52.012;4.736;2023-10-09T09:25:46;10.80;;;4.40;;
78489;SDS011;67776;52.012;4.736;2023-10-09T09:28:26;14.30;;;4.80;;
78489;SDS011;67776;52.012;4.736;2023-10-09T09:31:06;11.63;;;4.15;;
78489;SDS011;67776;52.012;4.736;2023-10-09T09:33:38;12.40;;;4.63;;
78489;SDS011;67776;52.012;4.736;2023-10-09T09:36:08;9.33;;;3.87;;
78489;SDS011;67776;52.012;4.736;2023-10-09T09:38:36;10.88;;;4.13;;
78489;SDS011;67776;52.012;4.736;2023-10-09T09:41:14;11.27;;;4.15;;
78489;SDS011;67776;52.012;4.736;2023-10-09T09:43:53;9.40;;;3.97;;
78489;SDS011;67776;52.012;4.736;2023-10-09T09:46:22;10.90;;;4.10;;
78489;SDS011;67776;52.012;4.736;2023-10-09T09:48:58;11.37;;;4.07;;
78489;SDS011;67776;52.012;4.736;2023-10-09T09:51:25;10.02;;;3.70;;
78489;SDS011;67776;52.012;4.736;2023-10-09T09:53:54;9.93;;;3.75;;
78489;SDS011;67776;52.012;4.736;2023-10-09T09:56:19;10.02;;;4.00;;
78489;SDS011;67776;52.012;4.736;2023-10-09T09:58:49;11.47;;;4.20;;
78489;SDS011;67776;52.012;4.736;2023-10-09T10:01:18;9.50;;;4.10;;
78489;SDS011;67776;52.012;4.736;2023-10-09T10:03:59;9.13;;;3.55;;
78489;SDS011;67776;52.012;4.736;2023-10-09T10:06:31;8.63;;;3.92;;
78489;SDS011;67776;52.012;4.736;2023-10-09T10:08:58;9.88;;;4.20;;
78489;SDS011;67776;52.012;4.736;2023-10-09T10:11:41;9.33;;;3.93;;
78489;SDS011;67776;52.012;4.736;2023-10-09T10:14:07;13.43;;;3.58;;
78489;SDS011;67776;52.012;4.736;2023-10-09T10:22:28;10.13;;;3.78;;
78489;SDS011;67776;52.012;4.736;2023-10-09T10:24:55;10.93;;;3.93;;
78489;SDS011;67776;52.012;4.736;2023-10-09T10:27:22;13.82;;;4.13;;
78489;SDS011;67776;52.012;4.736;2023-10-09T10:35:24;11.05;;;4.30;;
78489;SDS011;67776;52.012;4.736;2023-10-09T10:43:37;11.30;;;4.20;;
78489;SDS011;67776;52.012;4.736;2023-10-09T10:46:22;10.85;;;4.78;;
78489;SDS011;67776;52.012;4.736;2023-10-09T10:48:48;13.05;;;4.55;;
78489;SDS011;67776;52.012;4.736;2023-10-09T10:51:14;11.47;;;4.10;;
78489;SDS011;67776;52.012;4.736;2023-10-09T10:54:01;11.45;;;4.45;;
78489;SDS011;67776;52.012;4.736;2023-10-09T10:56:46;12.57;;;4.40;;
78489;SDS011;67776;52.012;4.736;2023-10-09T10:59:12;10.95;;;4.03;;
78489;SDS011;67776;52.012;4.736;2023-10-09T11:01:38;10.50;;;4.63;;
78489;SDS011;67776;52.012;4.736;2023-10-09T11:04:24;11.80;;;4.45;;
78489;SDS011;67776;52.012;4.736;2023-10-09T11:07:03;9.00;;;3.95;;
78489;SDS011;67776;52.012;4.736;2023-10-09T11:09:53;11.23;;;4.20;;
78489;SDS011;67776;52.012;4.736;2023-10-09T11:12:32;7.55;;;3.47;;
78489;SDS011;67776;52.012;4.736;2023-10-09T11:15:10;10.97;;;3.60;;
78489;SDS011;67776;52.012;4.736;2023-10-09T11:18:02;11.32;;;4.03;;
78489;SDS011;67776;52.012;4.736;2023-10-09T11:20:44;10.70;;;4.47;;
78489;SDS011;67776;52.012;4.736;2023-10-09T11:23:28;10.05;;;3.42;;
78489;SDS011;67776;52.012;4.736;2023-10-09T11:26:02;7.65;;;3.50;;
78489;SDS011;67776;52.012;4.736;2023-10-09T11:31:38;13.25;;;4.00;;
78489;SDS011;67776;52.012;4.736;2023-10-09T11:34:19;9.07;;;3.80;;
78489;SDS011;67776;52.012;4.736;2023-10-09T11:36:55;10.10;;;3.60;;
78489;SDS011;67776;52.012;4.736;2023-10-09T11:39:26;9.60;;;3.58;;
78489;SDS011;67776;52.012;4.736;2023-10-09T11:42:06;10.93;;;3.60;;
78489;SDS011;67776;52.012;4.736;2023-10-09T11:47:06;10.18;;;4.15;;
78489;SDS011;67776;52.012;4.736;2023-10-09T11:49:56;12.00;;;4.05;;
78489;SDS011;67776;52.012;4.736;2023-10-09T11:52:25;9.77;;;3.83;;
78489;SDS011;67776;52.012;4.736;2023-10-09T11:54:56;10.07;;;3.80;;
78489;SDS011;67776;52.012;4.736;2023-10-09T11:57:22;10.98;;;3.83;;
78489;SDS011;67776;52.012;4.736;2023-10-09T11:59:55;9.37;;;3.97;;
78489;SDS011;67776;52.012;4.736;2023-10-09T12:02:25;9.80;;;4.20;;
78489;SDS011;67776;52.012;4.736;2023-10-09T12:04:54;10.30;;;4.07;;
78489;SDS011;67776;52.012;4.736;2023-10-09T12:07:25;14.55;;;4.72;;
78489;SDS011;67776;52.012;4.736;2023-10-09T12:09:50;11.45;;;4.10;;
78489;SDS011;67776;52.012;4.736;2023-10-09T12:12:21;11.60;;;3.97;;
78489;SDS011;67776;52.012;4.736;2023-10-09T12:14:51;12.85;;;4.22;;
78489;SDS011;67776;52.012;4.736;2023-10-09T12:17:18;10.98;;;3.97;;
78489;SDS011;67776;52.012;4.736;2023-10-09T12:19:43;10.10;;;3.87;;
78489;SDS011;67776;52.012;4.736;2023-10-09T12:22:09;10.98;;;4.40;;
78489;SDS011;67776;52.012;4.736;2023-10-09T12:24:41;14.47;;;4.10;;
78489;SDS011;67776;52.012;4.736;2023-10-09T12:27:08;7.97;;;3.65;;
78489;SDS011;67776;52.012;4.736;2023-10-09T12:29:36;9.63;;;3.92;;
78489;SDS011;67776;52.012;4.736;2023-10-09T12:32:02;9.80;;;3.90;;
78489;SDS011;67776;52.012;4.736;2023-10-09T12:34:28;11.15;;;4.15;;
78489;SDS011;67776;52.012;4.736;2023-10-09T12:36:56;10.43;;;4.32;;
78489;SDS011;67776;52.012;4.736;2023-10-09T12:39:26;9.15;;;4.18;;
78489;SDS011;67776;52.012;4.736;2023-10-09T12:41:58;11.98;;;4.80;;
78489;SDS011;67776;52.012;4.736;2023-10-09T12:44:33;12.00;;;4.47;;
78489;SDS011;67776;52.012;4.736;2023-10-09T12:46:59;10.68;;;4.30;;
78489;SDS011;67776;52.012;4.736;2023-10-09T12:49:28;10.27;;;4.30;;
78489;SDS011;67776;52.012;4.736;2023-10-09T12:51:54;10.40;;;4.43;;
78489;SDS011;67776;52.012;4.736;2023-10-09T12:54:19;11.77;;;4.43;;
78489;SDS011;67776;52.012;4.736;2023-10-09T12:56:45;11.00;;;4.60;;
78489;SDS011;67776;52.012;4.736;2023-10-09T12:59:13;10.63;;;4.18;;
78489;SDS011;67776;52.012;4.736;2023-10-09T13:01:40;11.40;;;4.27;;
78489;SDS011;67776;52.012;4.736;2023-10-09T13:04:12;13.45;;;4.35;;
78489;SDS011;67776;52.012;4.736;2023-10-09T13:06:41;11.35;;;4.45;;
78489;SDS011;67776;52.012;4.736;2023-10-09T13:09:10;12.52;;;4.55;;
78489;SDS011;67776;52.012;4.736;2023-10-09T13:11:36;10.45;;;4.60;;
78489;SDS011;67776;52.012;4.736;2023-10-09T13:14:02;10.07;;;4.77;;
78489;SDS011;67776;52.012;4.736;2023-10-09T13:16:36;11.82;;;4.30;;
78489;SDS011;67776;52.012;4.736;2023-10-09T13:19:02;11.75;;;4.65;;
78489;SDS011;67776;52.012;4.736;2023-10-09T13:21:34;10.38;;;4.72;;
78489;SDS011;67776;52.012;4.736;2023-10-09T13:24:05;11.97;;;4.73;;
78489;SDS011;67776;52.012;4.736;2023-10-09T13:26:37;12.52;;;4.22;;
78489;SDS011;67776;52.012;4.736;2023-10-09T13:29:03;10.38;;;4.15;;
78489;SDS011;67776;52.012;4.736;2023-10-09T13:31:29;12.23;;;4.37;;
78489;SDS011;67776;52.012;4.736;2023-10-09T13:33:57;10.90;;;4.28;;
78489;SDS011;67776;52.012;4.736;2023-10-09T13:36:26;12.65;;;4.15;;
78489;SDS011;67776;52.012;4.736;2023-10-09T13:38:52;12.97;;;4.23;;
78489;SDS011;67776;52.012;4.736;2023-10-09T13:41:21;11.52;;;4.57;;
78489;SDS011;67776;52.012;4.736;2023-10-09T13:43:50;11.27;;;5.18;;
78489;SDS011;67776;52.012;4.736;2023-10-09T13:46:16;10.50;;;4.32;;
78489;SDS011;67776;52.012;4.736;2023-10-09T13:48:43;14.68;;;4.47;;
78489;SDS011;67776;52.012;4.736;2023-10-09T13:51:10;11.70;;;5.10;;
78489;SDS011;67776;52.012;4.736;2023-10-09T13:53:42;12.52;;;5.10;;
78489;SDS011;67776;52.012;4.736;2023-10-09T13:56:14;10.68;;;4.50;;
78489;SDS011;67776;52.012;4.736;2023-10-09T13:58:43;15.45;;;4.88;;
78489;SDS011;67776;52.012;4.736;2023-10-09T14:01:09;11.70;;;4.40;;
78489;SDS011;67776;52.012;4.736;2023-10-09T14:03:35;13.93;;;4.87;;
78489;SDS011;67776;52.012;4.736;2023-10-09T14:06:03;14.50;;;5.25;;
78489;SDS011;67776;52.012;4.736;2023-10-09T14:08:37;13.90;;;5.22;;
78489;SDS011;67776;52.012;4.736;2023-10-09T14:11:07;13.30;;;5.00;;
78489;SDS011;67776;52.012;4.736;2023-10-09T14:13:38;11.68;;;5.00;;
78489;SDS011;67776;52.012;4.736;2023-10-09T14:16:05;14.13;;;4.50;;
78489;SDS011;67776;52.012;4.736;2023-10-09T14:18:31;10.88;;;4.50;;
78489;SDS011;67776;52.012;4.736;2023-10-09T14:21:00;11.70;;;4.70;;
78489;SDS011;67776;52.012;4.736;2023-10-09T14:23:29;12.55;;;5.13;;
78489;SDS011;67776;52.012;4.736;2023-10-09T14:25:59;13.75;;;5.22;;
78489;SDS011;67776;52.012;4.736;2023-10-09T14:28:26;14.15;;;5.10;;
78489;SDS011;67776;52.012;4.736;2023-10-09T14:30:54;15.70;;;5.27;;
78489;SDS011;67776;52.012;4.736;2023-10-09T14:33:24;15.73;;;5.07;;
78489;SDS011;67776;52.012;4.736;2023-10-09T14:35:52;11.63;;;4.93;;
78489;SDS011;67776;52.012;4.736;2023-10-09T14:38:20;16.15;;;5.55;;
78489;SDS011;67776;52.012;4.736;2023-10-09T14:40:52;11.02;;;5.10;;
78489;SDS011;67776;52.012;4.736;2023-10-09T14:43:22;12.60;;;5.00;;
78489;SDS011;67776;52.012;4.736;2023-10-09T14:45:53;15.02;;;5.40;;
78489;SDS011;67776;52.012;4.736;2023-10-09T14:48:19;14.10;;;5.15;;
78489;SDS011;67776;52.012;4.736;2023-10-09T14:50:53;13.55;;;4.72;;
78489;SDS011;67776;52.012;4.736;2023-10-09T14:53:27;12.20;;;4.93;;
78489;SDS011;67776;52.012;4.736;2023-10-09T14:55:56;11.75;;;4.72;;
78489;SDS011;67776;52.012;4.736;2023-10-09T14:58:22;12.77;;;4.80;;
78489;SDS011;67776;52.012;4.736;2023-10-09T15:00:51;14.65;;;5.20;;
78489;SDS011;67776;52.012;4.736;2023-10-09T15:03:16;11.52;;;4.47;;
78489;SDS011;67776;52.012;4.736;2023-10-09T15:05:44;12.37;;;4.87;;
78489;SDS011;67776;52.012;4.736;2023-10-09T15:08:13;13.38;;;4.55;;
78489;SDS011;67776;52.012;4.736;2023-10-09T15:10:45;15.50;;;4.63;;
78489;SDS011;67776;52.012;4.736;2023-10-09T15:13:14;10.90;;;4.57;;
78489;SDS011;67776;52.012;4.736;2023-10-09T15:15:44;16.80;;;4.72;;
78489;SDS011;67776;52.012;4.736;2023-10-09T15:18:10;13.10;;;4.88;;
78489;SDS011;67776;52.012;4.736;2023-10-09T15:20:39;12.85;;;5.10;;
78489;SDS011;67776;52.012;4.736;2023-10-09T15:23:06;11.83;;;5.60;;
78489;SDS011;67776;52.012;4.736;2023-10-09T15:25:32;13.98;;;5.03;;
78489;SDS011;67776;52.012;4.736;2023-10-09T15:27:59;12.55;;;5.55;;
78489;SDS011;67776;52.012;4.736;2023-10-09T15:30:25;12.95;;;5.47;;
78489;SDS011;67776;52.012;4.736;2023-10-09T15:32:51;14.20;;;5.53;;
78489;SDS011;67776;52.012;4.736;2023-10-09T15:35:17;17.33;;;6.07;;